Time;durP1;ratioP1;P1;durP2;ratioP2;P2;SDS_P1;SDS_P2;PMS_P1;PMS_P2;Temp;Humidity;BMP_temperature;BMP_pressure;BME280_temperature;BME280_humidity;BME280_pressure;Samples;Min_cycle;Max_cycle;Signal;HPM_P1;HPM_P2
2021/08/22 00:00:27;;;;;;;5.47;3.10;;;;;;;21.05;47.93;101483.25;5050414;28;20176;-60
2021/08/22 00:02:52;;;;;;;6.07;2.90;;;;;;;21.01;47.98;101484.69;5051110;28;20234;-60
2021/08/22 00:05:18;;;;;;;6.17;2.90;;;;;;;20.93;48.11;101483.53;5050679;28;20177;-60
2021/08/22 00:07:43;;;;;;;4.67;3.10;;;;;;;20.81;48.34;101476.84;5050648;28;20204;-60
2021/08/22 00:10:09;;;;;;;5.20;3.40;;;;;;;20.85;48.37;101476.66;5050787;28;20717;-60
2021/08/22 00:12:35;;;;;;;6.97;3.43;;;;;;;20.84;48.52;101480.75;5054009;28;20655;-60
2021/08/22 00:15:00;;;;;;;7.00;3.27;;;;;;;20.80;48.27;101485.78;5054098;28;20180;-60
2021/08/22 00:17:26;;;;;;;5.87;3.10;;;;;;;20.75;48.17;101484.41;5054271;28;20270;-60
2021/08/22 00:19:51;;;;;;;9.87;3.87;;;;;;;20.66;48.75;101478.06;5054137;28;20181;-60
2021/08/22 00:22:17;;;;;;;7.17;3.50;;;;;;;20.67;49.07;101483.22;5054021;28;20277;-60
2021/08/22 00:24:42;;;;;;;6.50;3.33;;;;;;;20.65;48.97;101477.28;5054141;28;20176;-60
2021/08/22 00:27:08;;;;;;;11.47;3.70;;;;;;;20.25;49.17;101436.75;5054053;28;20187;-60
2021/08/22 00:29:34;;;;;;;9.70;3.67;;;;;;;20.45;49.22;101482.75;5053845;28;20177;-60
2021/08/22 00:31:59;;;;;;;9.63;3.67;;;;;;;20.31;49.37;101465.81;5053810;28;20185;-60
2021/08/22 00:34:25;;;;;;;10.97;3.40;;;;;;;20.16;49.79;101450.91;5053725;28;20184;-60
2021/08/22 00:36:50;;;;;;;7.30;3.30;;;;;;;20.36;50.02;101484.88;5054010;28;20563;-60
2021/08/22 00:39:16;;;;;;;6.20;3.33;;;;;;;20.37;49.97;101486.41;5053826;28;20186;-60
2021/08/22 00:41:42;;;;;;;4.07;3.07;;;;;;;20.36;50.22;101482.06;5053644;28;20200;-60
2021/08/22 00:44:07;;;;;;;8.83;3.43;;;;;;;20.36;49.68;101485.63;5053542;28;20816;-60
2021/08/22 00:46:37;;;;;;;7.70;3.30;;;;;;;20.23;50.24;101481.50;5053689;28;20299;-60
2021/08/22 00:49:04;;;;;;;7.17;3.83;;;;;;;20.14;50.24;101487.97;5053712;28;20260;-60
2021/08/22 00:51:30;;;;;;;13.37;4.07;;;;;;;20.17;50.02;101491.84;5053549;28;20654;-60
2021/08/22 00:53:55;;;;;;;7.77;3.47;;;;;;;20.17;50.15;101489.03;5053544;28;20204;-60
2021/08/22 00:56:21;;;;;;;11.20;3.87;;;;;;;20.15;50.26;101491.53;5053552;28;20486;-60
2021/08/22 00:58:47;;;;;;;9.00;3.63;;;;;;;19.72;50.46;101430.94;5053393;28;20184;-60
2021/08/22 01:01:24;;;;;;;7.20;3.20;;;;;;;19.89;50.67;101462.25;5053198;28;20812;-60
2021/08/22 01:04:03;;;;;;;5.67;3.50;;;;;;;20.13;50.67;101494.06;5053343;28;20400;-60
2021/08/22 01:06:46;;;;;;;10.60;3.63;;;;;;;20.13;50.73;101482.81;5053253;28;20211;-60
2021/08/22 01:09:19;;;;;;;6.80;3.17;;;;;;;20.16;50.62;101484.69;5053342;28;20177;-60
2021/08/22 01:11:45;;;;;;;7.13;3.33;;;;;;;20.08;50.81;101486.28;5053343;28;20626;-60
2021/08/22 01:14:14;;;;;;;7.70;3.70;;;;;;;20.07;50.24;101493.13;5053125;28;20177;-60
2021/08/22 01:16:52;;;;;;;6.00;3.40;;;;;;;20.03;50.61;101486.88;5053167;28;20188;-60
2021/08/22 01:19:30;;;;;;;5.93;3.50;;;;;;;20.02;50.89;101493.78;5053161;28;20167;-60
2021/08/22 01:21:58;;;;;;;10.67;3.73;;;;;;;19.92;50.72;101487.44;5053159;28;20207;-60
2021/08/22 01:24:25;;;;;;;7.50;3.33;;;;;;;19.93;50.76;101500.22;5052445;28;20491;-60
2021/08/22 01:26:53;;;;;;;5.80;3.37;;;;;;;19.90;50.93;101492.72;5049570;28;20194;-60
2021/08/22 01:29:22;;;;;;;9.70;3.43;;;;;;;19.90;50.99;101501.16;5052839;28;20260;-60
2021/08/22 01:31:49;;;;;;;7.33;3.30;;;;;;;19.87;51.18;101488.06;5052865;28;20641;-60
2021/08/22 01:34:16;;;;;;;8.17;3.87;;;;;;;19.94;51.06;101490.53;5050448;28;20199;-60
2021/08/22 01:36:42;;;;;;;7.57;3.30;;;;;;;19.98;51.10;101491.16;5050345;28;20202;-60
2021/08/22 01:39:09;;;;;;;5.87;3.07;;;;;;;19.85;51.19;101487.00;5034786;28;20567;-60
2021/08/22 01:41:36;;;;;;;5.40;3.20;;;;;;;19.80;51.18;101507.31;5050307;28;20301;-61
2021/08/22 01:44:03;;;;;;;5.57;3.50;;;;;;;19.57;51.21;101463.03;5050924;28;20240;-60
2021/08/22 01:46:33;;;;;;;5.97;3.37;;;;;;;19.78;51.50;101493.72;5048216;28;20182;-60
2021/08/22 01:49:02;;;;;;;9.80;3.37;;;;;;;19.79;51.41;101488.88;5052642;28;20176;-60
2021/08/22 01:51:29;;;;;;;9.60;3.33;;;;;;;19.46;51.48;101440.25;5052558;28;20618;-60
2021/08/22 01:54:07;;;;;;;4.50;3.07;;;;;;;19.78;51.62;101492.94;5052595;28;20226;-60
2021/08/22 01:56:37;;;;;;;8.43;3.13;;;;;;;19.77;51.78;101497.81;5052362;28;20222;-60
2021/08/22 01:59:03;;;;;;;7.50;3.30;;;;;;;19.79;51.63;101500.13;5052556;28;20670;-60
2021/08/22 02:01:29;;;;;;;6.00;3.43;;;;;;;19.81;51.61;101497.63;5052153;28;20192;-60
2021/08/22 02:03:58;;;;;;;5.70;3.30;;;;;;;19.71;51.51;101494.03;5034395;28;20184;-60
2021/08/22 02:06:25;;;;;;;6.67;3.53;;;;;;;19.65;51.65;101493.13;5052231;28;20211;-60
2021/08/22 02:08:57;;;;;;;7.23;3.30;;;;;;;19.43;52.64;101494.59;5034191;28;20199;-60
2021/08/22 02:11:32;;;;;;;27.90;5.07;;;;;;;19.44;52.19;101496.94;5052262;28;20171;-60
2021/08/22 02:13:59;;;;;;;10.37;3.70;;;;;;;19.36;52.37;101486.50;5052029;28;20171;-60
2021/08/22 02:16:28;;;;;;;12.03;3.73;;;;;;;19.37;52.44;101488.84;5052032;28;20397;-60
2021/08/22 02:18:56;;;;;;;12.90;4.33;;;;;;;19.40;52.58;101492.75;5052171;28;20784;-60
2021/08/22 02:21:22;;;;;;;9.83;4.37;;;;;;;19.12;52.71;101455.47;5051819;28;20283;-60
2021/08/22 02:23:50;;;;;;;8.07;4.20;;;;;;;19.23;52.61;101492.31;5051888;28;20180;-60
2021/08/22 02:26:17;;;;;;;10.67;3.97;;;;;;;19.08;53.00;101485.75;5051703;28;20589;-60
2021/08/22 02:28:43;;;;;;;11.93;3.73;;;;;;;19.13;53.20;101485.13;5051943;28;20534;-60
2021/08/22 02:31:12;;;;;;;11.90;3.77;;;;;;;19.14;53.31;101497.91;5051845;28;20176;-60
2021/08/22 02:33:38;;;;;;;10.27;3.80;;;;;;;19.11;53.38;101496.06;5051430;28;20274;-60
2021/08/22 02:36:03;;;;;;;12.97;4.03;;;;;;;19.15;53.15;101507.13;5051083;28;20654;-60
2021/08/22 02:38:29;;;;;;;7.27;3.43;;;;;;;19.09;53.29;101497.78;5051788;28;20274;-60
2021/08/22 02:40:54;;;;;;;8.33;3.60;;;;;;;19.09;53.43;101504.16;5051565;28;20196;-60
2021/08/22 02:43:20;;;;;;;9.47;3.60;;;;;;;19.14;53.16;101502.78;5051557;28;20595;-60
2021/08/22 02:45:45;;;;;;;8.23;3.40;;;;;;;19.17;53.14;101502.59;5051582;28;20180;-60
2021/08/22 02:48:12;;;;;;;5.83;3.37;;;;;;;19.09;53.09;101490.09;5051732;28;20190;-60
2021/08/22 02:50:38;;;;;;;10.03;3.60;;;;;;;18.77;53.08;101442.25;5051646;28;20184;-60
2021/08/22 02:53:05;;;;;;;6.83;3.60;;;;;;;19.20;52.78;101506.50;5051570;28;20176;-60
2021/08/22 02:55:30;;;;;;;6.43;3.10;;;;;;;19.19;52.18;101499.31;5051517;28;20565;-60
2021/08/22 02:57:56;;;;;;;6.20;3.37;;;;;;;18.95;53.05;101479.53;5049153;28;20196;-60
2021/08/22 03:00:21;;;;;;;4.10;2.77;;;;;;;19.02;52.75;101498.88;5051404;28;20600;-60
2021/08/22 03:02:47;;;;;;;4.57;3.13;;;;;;;18.91;53.41;101497.78;5051474;28;20176;-60
2021/08/22 03:05:12;;;;;;;3.80;2.83;;;;;;;18.86;53.79;101507.63;5033427;28;20188;-60
2021/08/22 03:07:38;;;;;;;4.97;3.00;;;;;;;18.97;53.32;101504.31;5051346;28;20314;-60
2021/08/22 03:10:04;;;;;;;6.40;3.53;;;;;;;18.88;53.37;101487.50;5051423;28;20329;-60
2021/08/22 03:12:29;;;;;;;4.10;2.80;;;;;;;18.99;53.15;101485.00;5051255;28;20183;-60
2021/08/22 03:14:55;;;;;;;5.83;3.10;;;;;;;19.05;53.12;101503.56;5051421;28;20555;-60
2021/08/22 03:17:20;;;;;;;8.90;2.97;;;;;;;18.99;53.09;101504.66;5051268;28;20187;-60
2021/08/22 03:19:46;;;;;;;15.03;4.13;;;;;;;18.99;53.04;101508.22;5051180;28;20180;-60
2021/08/22 03:22:11;;;;;;;14.57;4.60;;;;;;;18.99;52.80;101501.84;5051201;28;20574;-60
2021/08/22 03:24:37;;;;;;;14.77;4.30;;;;;;;18.77;52.50;101470.34;5051322;28;20184;-60
2021/08/22 03:27:02;;;;;;;10.77;3.80;;;;;;;19.02;53.04;101503.69;5051225;28;20653;-60
2021/08/22 03:29:28;;;;;;;7.47;3.77;;;;;;;18.85;52.72;101483.59;5051141;28;20184;-60
2021/08/22 03:31:53;;;;;;;6.00;3.10;;;;;;;19.08;52.54;101510.28;5051032;28;20196;-60
2021/08/22 03:34:19;;;;;;;10.27;3.20;;;;;;;19.13;52.60;101506.84;5051127;28;20563;-60
2021/08/22 03:36:44;;;;;;;8.90;3.43;;;;;;;19.16;52.72;101514.31;5051284;28;20181;-60
2021/08/22 03:39:10;;;;;;;6.47;3.27;;;;;;;19.13;53.10;101510.41;5048858;28;20190;-60
2021/08/22 03:41:35;;;;;;;19.47;4.53;;;;;;;19.03;52.89;101514.47;5050947;28;20244;-60
2021/08/22 03:44:01;;;;;;;11.93;3.97;;;;;;;19.04;52.78;101520.88;5050743;28;20731;-60
2021/08/22 03:46:27;;;;;;;7.07;3.17;;;;;;;18.92;52.46;101494.50;5052793;28;20186;-60
2021/08/22 03:48:52;;;;;;;9.23;3.47;;;;;;;19.10;52.42;101521.81;5054966;28;20184;-60
2021/08/22 03:51:19;;;;;;;6.43;3.10;;;;;;;19.13;52.65;101527.25;5054902;28;20181;-60
2021/08/22 03:53:45;;;;;;;9.90;3.40;;;;;;;19.13;52.35;101529.31;5054891;28;20181;-60
2021/08/22 03:56:10;;;;;;;4.43;2.73;;;;;;;19.06;52.18;101518.38;5054620;28;20244;-60
2021/08/22 03:58:36;;;;;;;11.23;3.60;;;;;;;19.13;52.56;101515.25;5054760;28;20176;-60
2021/08/22 04:01:02;;;;;;;6.57;3.40;;;;;;;18.76;52.63;101463.94;5054679;28;20690;-60
2021/08/22 04:03:28;;;;;;;7.43;3.70;;;;;;;19.15;52.23;101526.78;5054504;28;20615;-60
2021/08/22 04:05:53;;;;;;;8.93;3.40;;;;;;;19.12;52.76;101534.13;5037011;28;20188;-60
2021/08/22 04:08:24;;;;;;;5.00;2.80;;;;;;;18.83;51.97;101483.25;5054516;28;20298;-60
2021/08/22 04:10:50;;;;;;;7.07;3.40;;;;;;;18.89;52.45;101503.09;5054547;28;20179;-60
2021/08/22 04:13:15;;;;;;;5.90;3.07;;;;;;;19.10;51.55;101525.41;5054443;28;20683;-60
2021/08/22 04:15:42;;;;;;;8.47;3.60;;;;;;;19.24;52.59;101541.63;5054504;28;20180;-60
2021/08/22 04:18:08;;;;;;;12.53;3.97;;;;;;;19.34;52.61;101540.38;5054366;28;20176;-60
2021/08/22 04:20:33;;;;;;;13.73;4.53;;;;;;;19.43;52.49;101542.38;5054333;28;20180;-60
2021/08/22 04:22:59;;;;;;;8.97;3.87;;;;;;;19.47;52.63;101549.44;5054406;28;20211;-60
2021/08/22 04:25:24;;;;;;;11.20;3.77;;;;;;;19.52;52.40;101546.00;5054144;28;20186;-60
2021/08/22 04:27:50;;;;;;;9.63;3.73;;;;;;;19.25;52.57;101529.16;5054296;28;20187;-60
2021/08/22 04:30:15;;;;;;;5.63;3.10;;;;;;;19.48;52.67;101553.00;5054182;28;20176;-60
2021/08/22 04:32:41;;;;;;;7.00;3.30;;;;;;;19.53;52.72;101558.00;5053992;28;20263;-60
2021/08/22 04:35:07;;;;;;;8.53;3.50;;;;;;;19.61;52.51;101562.06;5054055;28;20207;-60
2021/08/22 04:37:32;;;;;;;17.73;4.10;;;;;;;19.66;52.71;101567.03;5053958;28;20257;-60
2021/08/22 04:39:59;;;;;;;17.77;4.53;;;;;;;19.66;52.78;101567.03;5054006;28;20654;-60
2021/08/22 04:42:24;;;;;;;11.63;3.73;;;;;;;19.31;52.16;101507.63;5053903;28;20193;-60
2021/08/22 04:44:50;;;;;;;7.53;3.70;;;;;;;19.73;51.62;101564.69;5053734;28;20230;-60
2021/08/22 04:47:15;;;;;;;7.97;3.20;;;;;;;19.27;52.86;101487.31;5053939;28;20195;-60
2021/08/22 04:49:41;;;;;;;6.60;3.90;;;;;;;19.44;51.42;101515.88;5053869;28;20669;-60
2021/08/22 04:52:06;;;;;;;6.47;4.53;;;;;;;19.87;50.94;101575.28;5053775;28;20185;-60
2021/08/22 04:54:32;;;;;;;9.37;5.23;;;;;;;19.94;50.87;101571.31;5053718;28;20176;-60
2021/08/22 04:56:57;;;;;;;12.43;6.17;;;;;;;19.95;50.95;101570.09;5053341;28;20203;-60
2021/08/22 04:59:24;;;;;;;12.50;5.60;;;;;;;20.06;51.00;101582.38;5035282;28;20188;-60
2021/08/22 05:01:50;;;;;;;10.30;5.40;;;;;;;20.08;51.04;101565.06;5053313;28;20236;-60
2021/08/22 05:04:15;;;;;;;15.17;5.60;;;;;;;20.16;50.96;101578.31;5053533;28;20658;-60
2021/08/22 05:06:41;;;;;;;11.73;5.23;;;;;;;20.28;51.22;101587.81;5053489;28;20195;-60
2021/08/22 05:09:06;;;;;;;10.00;4.90;;;;;;;20.34;50.71;101581.06;5053429;28;20679;-60
2021/08/22 05:11:33;;;;;;;8.17;4.90;;;;;;;19.83;51.24;101509.97;5053306;28;20231;-60
2021/08/22 05:13:59;;;;;;;8.90;4.60;;;;;;;20.48;51.55;101588.81;5053241;28;20179;-60
2021/08/22 05:16:24;;;;;;;7.83;4.00;;;;;;;20.42;51.40;101595.56;5053230;28;20566;-60
2021/08/22 05:18:50;;;;;;;8.37;4.10;;;;;;;20.32;51.93;101597.63;5053312;28;20713;-60
2021/08/22 05:21:15;;;;;;;7.97;4.17;;;;;;;19.87;52.42;101535.09;5053004;28;20207;-60
2021/08/22 05:23:41;;;;;;;9.30;4.17;;;;;;;20.32;52.74;101577.16;5053003;28;20223;-60
2021/08/22 05:26:06;;;;;;;11.30;3.80;;;;;;;20.55;52.78;101601.75;5053106;28;20268;-60
2021/08/22 05:28:32;;;;;;;6.83;3.33;;;;;;;20.49;52.59;101596.00;5053018;28;20211;-60
2021/08/22 05:30:57;;;;;;;8.37;3.80;;;;;;;20.62;53.09;101599.34;5052868;28;20183;-60
2021/08/22 05:33:23;;;;;;;7.77;3.80;;;;;;;20.74;53.16;101600.38;5052817;28;20212;-60
2021/08/22 05:35:48;;;;;;;8.43;3.00;;;;;;;20.94;52.61;101590.09;5052849;28;20680;-60
2021/08/22 05:38:14;;;;;;;7.90;3.70;;;;;;;21.12;52.60;101604.06;5052798;28;20183;-60
2021/08/22 05:40:39;;;;;;;6.53;3.87;;;;;;;21.36;52.28;101601.19;5052609;28;20180;-60
2021/08/22 05:43:05;;;;;;;8.07;3.23;;;;;;;21.47;50.93;101601.41;5052489;28;20733;-60
2021/08/22 05:45:31;;;;;;;9.37;3.50;;;;;;;21.65;51.02;101602.00;5052463;28;20172;-60
2021/08/22 05:47:56;;;;;;;9.73;3.90;;;;;;;21.53;50.89;101565.63;5052734;28;20179;-60
2021/08/22 05:50:22;;;;;;;7.90;3.77;;;;;;;21.86;50.25;101595.22;5049606;28;20192;-60
2021/08/22 05:52:47;;;;;;;5.57;3.30;;;;;;;22.04;49.86;101608.34;5052455;28;20196;-60
2021/08/22 05:55:14;;;;;;;7.50;3.37;;;;;;;22.16;49.69;101613.69;5052541;28;20187;-60
2021/08/22 05:57:40;;;;;;;6.20;3.60;;;;;;;21.95;49.18;101549.22;5032620;28;20180;-60
2021/08/22 06:00:07;;;;;;;5.43;3.20;;;;;;;22.39;48.42;101604.34;5049595;28;20194;-60
2021/08/22 06:02:32;;;;;;;6.63;3.30;;;;;;;22.23;48.14;101570.19;5052129;28;20251;-60
2021/08/22 06:04:58;;;;;;;7.47;3.13;;;;;;;22.67;47.55;101599.88;5052270;28;20215;-60
2021/08/22 06:07:23;;;;;;;4.90;3.20;;;;;;;22.83;46.65;101601.41;5052087;28;20180;-60
2021/08/22 06:09:50;;;;;;;6.37;3.70;;;;;;;22.99;45.66;101610.09;5052018;28;20184;-60
2021/08/22 06:12:17;;;;;;;7.63;4.23;;;;;;;23.07;45.05;101605.56;5052167;28;20310;-60
2021/08/22 06:14:43;;;;;;;6.93;4.37;;;;;;;23.07;45.26;101577.28;5051983;28;20180;-60
2021/08/22 06:17:08;;;;;;;5.60;3.47;;;;;;;23.41;44.68;101606.75;5051921;28;20668;-60
2021/08/22 06:19:34;;;;;;;5.33;3.30;;;;;;;23.42;44.61;101614.75;5049272;28;20684;-60
2021/08/22 06:21:59;;;;;;;5.63;2.90;;;;;;;23.40;43.25;101591.06;5051879;28;20294;-60
2021/08/22 06:24:25;;;;;;;6.00;2.70;;;;;;;23.38;42.86;101602.88;5034094;28;20185;-60
2021/08/22 06:26:51;;;;;;;6.13;2.93;;;;;;;23.26;43.08;101574.97;5051994;28;20184;-60
2021/08/22 06:29:16;;;;;;;7.00;2.83;;;;;;;23.57;44.53;101620.31;5050107;28;20246;-60
2021/08/22 06:31:42;;;;;;;5.13;3.33;;;;;;;23.66;43.78;101620.94;5051615;28;20191;-60
2021/08/22 06:34:09;;;;;;;7.73;4.10;;;;;;;23.72;43.90;101616.09;5051532;28;20202;-60
2021/08/22 06:36:39;;;;;;;6.07;3.87;;;;;;;23.89;43.78;101622.72;5033898;28;20183;-60
2021/08/22 06:39:05;;;;;;;12.03;3.90;;;;;;;23.97;43.73;101617.38;5051809;28;20176;-60
2021/08/22 06:41:31;;;;;;;5.23;3.30;;;;;;;24.09;42.98;101622.66;5051739;28;20188;-60
2021/08/22 06:44:00;;;;;;;3.90;2.63;;;;;;;24.14;42.70;101624.75;5051350;28;20235;-60
2021/08/22 06:46:25;;;;;;;6.27;2.90;;;;;;;24.30;42.50;101618.44;5033710;28;20223;-60
2021/08/22 06:48:51;;;;;;;6.73;3.30;;;;;;;24.35;41.96;101619.75;5051607;28;20614;-60
2021/08/22 06:51:17;;;;;;;6.30;3.40;;;;;;;24.54;41.83;101618.09;5051595;28;20180;-60
2021/08/22 06:53:42;;;;;;;7.80;4.40;;;;;;;24.65;41.18;101615.34;5051271;28;20275;-60
2021/08/22 06:56:08;;;;;;;6.33;3.60;;;;;;;24.76;41.26;101604.06;5051348;28;20179;-60
2021/08/22 06:58:34;;;;;;;7.27;3.20;;;;;;;24.43;41.86;101538.69;5051327;28;20209;-60
2021/08/22 07:01:00;;;;;;;7.37;3.30;;;;;;;24.98;40.99;101621.22;5051156;28;20270;-60
2021/08/22 07:03:25;;;;;;;6.40;3.27;;;;;;;24.90;40.01;101609.59;5051233;28;20180;-60
2021/08/22 07:05:51;;;;;;;6.00;3.30;;;;;;;24.81;39.74;101575.78;5051311;28;20654;-60
2021/08/22 07:08:16;;;;;;;4.40;3.13;;;;;;;25.18;41.00;101626.72;5051198;28;20202;-60
2021/08/22 07:10:42;;;;;;;5.87;3.80;;;;;;;25.19;39.46;101629.03;5051134;28;20233;-60
2021/08/22 07:13:07;;;;;;;5.93;3.50;;;;;;;25.10;40.05;101612.25;5051288;28;20314;-60
2021/08/22 07:15:34;;;;;;;5.40;3.47;;;;;;;25.05;40.11;101607.34;5051119;28;20218;-60
2021/08/22 07:18:00;;;;;;;4.70;3.77;;;;;;;25.29;40.33;101635.31;5051246;28;20187;-60
2021/08/22 07:20:26;;;;;;;6.20;3.60;;;;;;;25.44;40.73;101633.81;5051210;28;20188;-60
2021/08/22 07:22:51;;;;;;;5.00;3.53;;;;;;;25.58;40.58;101634.91;5055226;28;20230;-60
2021/08/22 07:25:17;;;;;;;5.03;3.77;;;;;;;25.73;40.07;101630.53;5055144;28;20179;-60
2021/08/22 07:27:43;;;;;;;7.53;4.23;;;;;;;25.92;39.33;101633.69;5055316;28;20191;-60
2021/08/22 07:30:09;;;;;;;4.37;3.53;;;;;;;26.02;39.10;101634.97;5055391;28;20176;-60
2021/08/22 07:32:35;;;;;;;6.87;4.47;;;;;;;26.07;38.90;101637.84;5037363;28;20184;-60
2021/08/22 07:35:00;;;;;;;6.63;4.20;;;;;;;26.22;39.00;101615.63;5055072;28;20184;-60
2021/08/22 07:37:25;;;;;;;6.23;3.93;;;;;;;26.25;38.14;101630.88;5055118;28;20179;-60
2021/08/22 07:39:51;;;;;;;7.63;4.40;;;;;;;26.17;38.74;101615.63;5055042;28;20642;-60
2021/08/22 07:42:16;;;;;;;7.57;4.37;;;;;;;26.14;38.95;101606.06;5054831;28;20215;-60
2021/08/22 07:44:42;;;;;;;7.90;4.57;;;;;;;25.97;38.09;101561.91;5054502;28;20721;-60
2021/08/22 07:47:07;;;;;;;6.17;4.10;;;;;;;26.36;37.84;101623.09;5054990;28;20195;-60
2021/08/22 07:49:33;;;;;;;5.57;4.40;;;;;;;26.49;37.98;101631.88;5054831;28;20717;-60
2021/08/22 07:51:58;;;;;;;6.30;4.13;;;;;;;26.53;38.68;101625.91;5054883;28;20180;-60
2021/08/22 07:54:24;;;;;;;7.53;4.30;;;;;;;26.61;37.27;101626.97;5054821;28;20650;-60
2021/08/22 07:56:49;;;;;;;6.67;4.37;;;;;;;26.75;37.25;101623.06;5054555;28;20629;-60
2021/08/22 07:59:15;;;;;;;7.80;4.47;;;;;;;26.56;37.34;101590.81;5054810;28;20233;-60
2021/08/22 08:01:40;;;;;;;6.30;4.00;;;;;;;26.94;37.13;101616.28;5054528;28;20735;-60
2021/08/22 08:04:06;;;;;;;5.83;3.83;;;;;;;27.15;37.56;101617.50;5054614;28;20176;-60
2021/08/22 08:06:31;;;;;;;4.83;3.93;;;;;;;27.35;36.77;101620.03;5054543;28;20229;-60
2021/08/22 08:08:58;;;;;;;6.40;4.47;;;;;;;27.54;36.62;101623.03;5054505;28;20187;-60
2021/08/22 08:11:23;;;;;;;7.27;4.50;;;;;;;27.76;35.86;101623.66;5054524;28;20183;-60
2021/08/22 08:13:49;;;;;;;5.53;4.17;;;;;;;27.65;35.76;101608.72;5054495;28;20548;-60
2021/08/22 08:16:14;;;;;;;10.63;4.50;;;;;;;27.74;36.67;101620.53;5054482;28;20180;-60
2021/08/22 08:18:40;;;;;;;6.30;4.73;;;;;;;27.71;36.14;101627.31;5054388;28;20634;-60
2021/08/22 08:21:05;;;;;;;11.77;5.40;;;;;;;27.58;35.67;101626.38;5054100;28;20207;-60
2021/08/22 08:23:31;;;;;;;7.30;5.33;;;;;;;27.60;36.56;101633.09;5054128;28;20176;-60
2021/08/22 08:25:57;;;;;;;7.90;5.07;;;;;;;27.74;35.83;101625.50;5054201;28;20179;-60
2021/08/22 08:28:23;;;;;;;7.13;4.93;;;;;;;27.66;36.13;101587.47;5036319;28;20220;-60
2021/08/22 08:30:49;;;;;;;8.07;5.60;;;;;;;27.92;34.62;101619.94;5054142;28;20187;-60
2021/08/22 08:33:15;;;;;;;9.30;5.30;;;;;;;27.62;35.63;101549.97;5052842;28;20176;-60
2021/08/22 08:35:41;;;;;;;7.90;5.00;;;;;;;28.22;34.87;101617.88;5036216;28;20180;-60
2021/08/22 08:38:06;;;;;;;6.50;4.90;;;;;;;28.37;35.46;101609.72;5054103;28;20264;-60
2021/08/22 08:40:33;;;;;;;7.63;5.70;;;;;;;28.20;34.62;101589.13;5053922;28;20179;-60
2021/08/22 08:43:05;;;;;;;8.70;5.70;;;;;;;28.04;34.45;101575.81;5053680;28;20650;-60
2021/08/22 08:45:50;;;;;;;9.70;6.13;;;;;;;28.36;34.65;101622.41;5053725;28;20286;-60
2021/08/22 08:48:22;;;;;;;6.67;5.27;;;;;;;28.47;34.36;101613.03;5053778;28;20180;-60
2021/08/22 08:51:35;;;;;;;9.63;5.70;;;;;;;28.61;34.89;101620.41;5053646;28;20183;-60
2021/08/22 08:54:31;;;;;;;9.70;5.90;;;;;;;28.44;34.57;101606.31;5049854;28;20245;-60
2021/08/22 08:56:58;;;;;;;8.50;5.83;;;;;;;28.70;33.94;101612.25;5051489;28;20584;-60
2021/08/22 08:59:24;;;;;;;8.43;5.97;;;;;;;28.74;34.16;101615.59;5053562;28;20318;-60
2021/08/22 09:01:52;;;;;;;7.10;5.90;;;;;;;28.90;34.51;101620.31;5053449;28;20261;-60
2021/08/22 09:04:27;;;;;;;7.13;5.43;;;;;;;29.11;33.99;101612.84;5053455;28;20253;-60
2021/08/22 09:07:46;;;;;;;5.87;5.27;;;;;;;29.16;33.98;101611.19;5053510;28;20172;-60
2021/08/22 09:10:48;;;;;;;7.95;5.35;;;;;;;29.15;34.07;101609.66;5024636;28;20224;-60
2021/08/22 09:13:51;;;;;;;12.32;5.82;;;;;;;29.10;33.31;101611.28;5015559;28;20271;-60
2021/08/22 09:16:54;;;;;;;10.77;5.50;;;;;;;29.06;33.39;101607.19;5033395;28;20219;-60
2021/08/22 09:20:09;;;;;;;10.48;5.65;;;;;;;29.33;32.76;101606.81;5033428;28;20188;-60
2021/08/22 09:23:12;;;;;;;9.43;6.10;;;;;;;29.76;31.97;101598.19;5033285;28;20197;-60
2021/08/22 09:26:15;;;;;;;7.40;5.57;;;;;;;29.86;32.46;101593.59;5045467;28;20188;-60
2021/08/22 09:29:17;;;;;;;7.03;5.60;;;;;;;29.98;32.52;101597.81;5053082;28;20172;-60
2021/08/22 09:32:06;;;;;;;8.45;5.35;;;;;;;29.97;31.78;101588.50;5053044;28;20179;-60
2021/08/22 09:34:53;;;;;;;7.72;5.25;;;;;;;30.19;32.46;101590.25;5033490;28;20247;-61
2021/08/22 09:37:27;;;;;;;6.95;5.22;;;;;;;30.53;31.90;101580.50;5053032;28;20575;-60
2021/08/22 09:40:30;;;;;;;9.27;6.18;;;;;;;30.77;31.81;101588.88;5053214;28;20176;-61
2021/08/22 09:43:11;;;;;;;7.32;5.90;;;;;;;30.55;32.01;101585.66;5052419;28;20211;-61
2021/08/22 09:45:51;;;;;;;25.17;6.57;;;;;;;30.48;32.04;101586.31;5052347;28;20188;-61
2021/08/22 09:48:54;;;;;;;8.70;5.72;;;;;;;30.44;32.28;101578.06;5052819;28;20180;-60
2021/08/22 09:51:29;;;;;;;11.60;6.13;;;;;;;30.61;32.28;101578.50;5052672;28;20225;-60
2021/08/22 09:54:32;;;;;;;11.55;5.63;;;;;;;30.59;32.23;101571.78;5052660;28;20229;-60
2021/08/22 09:57:25;;;;;;;9.55;5.53;;;;;;;30.77;32.09;101568.84;5052537;28;20561;-60
2021/08/22 10:00:09;;;;;;;10.27;5.95;;;;;;;31.12;31.57;101567.63;5052498;28;20171;-61
2021/08/22 10:03:12;;;;;;;9.60;5.47;;;;;;;31.13;30.53;101560.56;5034385;28;20207;-60
2021/08/22 10:05:37;;;;;;;7.78;5.55;;;;;;;31.25;30.59;101559.00;5052261;28;20234;-61
2021/08/22 10:08:14;;;;;;;8.07;5.30;;;;;;;31.48;30.27;101549.34;5052722;28;20646;-61
2021/08/22 10:10:45;;;;;;;7.97;5.95;;;;;;;31.42;31.16;101560.16;5052144;28;20619;-61
2021/08/22 10:13:11;;;;;;;7.28;5.40;;;;;;;31.34;30.23;101524.19;5052314;28;20172;-61
2021/08/22 10:15:36;;;;;;;7.95;5.80;;;;;;;31.65;30.18;101546.88;5052081;28;20184;-61
2021/08/22 10:18:02;;;;;;;11.13;5.50;;;;;;;31.85;30.01;101549.00;5052142;28;20638;-61
2021/08/22 10:20:42;;;;;;;8.13;5.38;;;;;;;31.82;30.15;101547.25;5052020;28;20190;-61
2021/08/22 10:23:41;;;;;;;9.52;5.53;;;;;;;32.03;30.26;101544.34;5046440;28;20184;-61
2021/08/22 10:26:08;;;;;;;9.90;5.57;;;;;;;32.24;29.47;101548.75;5032122;28;20263;-61
2021/08/22 10:28:53;;;;;;;7.38;5.28;;;;;;;32.10;29.26;101546.53;5046527;28;20184;-61
2021/08/22 10:31:52;;;;;;;6.85;5.50;;;;;;;32.22;29.46;101539.16;5051828;28;20627;-61
2021/08/22 10:34:31;;;;;;;8.77;5.90;;;;;;;32.14;29.82;101461.69;5031803;28;20173;-61
2021/08/22 10:36:58;;;;;;;9.23;5.65;;;;;;;32.86;29.11;101534.28;5031753;28;20195;-61
2021/08/22 10:39:25;;;;;;;7.57;5.97;;;;;;;32.74;29.27;101536.69;5031813;28;20642;-61
2021/08/22 10:41:55;;;;;;;10.90;5.93;;;;;;;32.71;28.64;101531.31;5031606;28;20204;-61
2021/08/22 10:44:33;;;;;;;6.97;5.53;;;;;;;32.87;28.87;101533.69;5039865;28;20248;-61
2021/08/22 10:46:59;;;;;;;7.50;5.50;;;;;;;32.75;28.08;101474.31;5051560;28;20255;-61
2021/08/22 10:49:49;;;;;;;8.10;5.40;;;;;;;33.44;28.06;101525.69;5051301;28;20180;-61
2021/08/22 10:52:22;;;;;;;10.65;5.57;;;;;;;33.70;26.87;101525.34;5051334;28;20226;-61
2021/08/22 10:55:14;;;;;;;7.03;5.20;;;;;;;33.67;27.04;101533.03;5050996;28;20172;-61
2021/08/22 10:57:45;;;;;;;10.88;5.88;;;;;;;33.77;26.38;101519.63;5042822;28;20203;-61
2021/08/22 11:00:25;;;;;;;6.93;5.20;;;;;;;33.88;27.19;101521.41;5033717;28;20572;-61
2021/08/22 11:02:53;;;;;;;7.55;5.57;;;;;;;33.97;26.97;101515.81;5050914;28;20207;-61
2021/08/22 11:05:27;;;;;;;7.47;5.30;;;;;;;33.77;28.02;101519.63;5033234;28;20275;-61
2021/08/22 11:07:55;;;;;;;10.10;5.60;;;;;;;33.49;27.88;101487.41;5051029;28;20183;-61
2021/08/22 11:10:23;;;;;;;10.82;5.50;;;;;;;33.52;26.86;101515.00;5051086;28;20238;-61
2021/08/22 11:12:51;;;;;;;10.55;5.15;;;;;;;33.67;26.54;101510.03;5051056;28;20646;-61
2021/08/22 11:15:25;;;;;;;9.23;5.38;;;;;;;33.32;26.62;101433.34;5051063;28;20183;-61
2021/08/22 11:17:52;;;;;;;5.90;5.00;;;;;;;33.59;26.71;101503.50;5033102;28;20176;-61
2021/08/22 11:20:20;;;;;;;7.20;5.03;;;;;;;34.03;26.59;101498.38;5050785;28;20233;-61
2021/08/22 11:22:49;;;;;;;9.82;5.43;;;;;;;34.32;26.27;101499.69;5050909;28;20200;-61
2021/08/22 11:25:16;;;;;;;7.20;5.32;;;;;;;34.31;26.15;101506.81;5050997;28;20182;-61
2021/08/22 11:27:41;;;;;;;8.15;5.25;;;;;;;34.49;25.94;101502.75;5050892;28;20598;-61
2021/08/22 11:30:10;;;;;;;6.43;5.05;;;;;;;34.31;26.50;101503.94;5050727;28;20263;-61
2021/08/22 11:32:37;;;;;;;8.43;5.53;;;;;;;34.35;25.44;101489.91;5050637;28;20191;-61
2021/08/22 11:35:17;;;;;;;6.45;4.78;;;;;;;34.41;25.43;101478.97;5050800;28;20566;-61